sensor_id;sensor_type;location;lat;lon;timestamp;pressure;altitude;pressure_sealevel;temperature;humidity
53340;BME280;46212;50.258;19.062;2023-04-21T00:02:20;98676.97;;;7.85;88.51
53340;BME280;46212;50.258;19.062;2023-04-21T00:04:46;98667.88;;;7.88;88.30
53340;BME280;46212;50.258;19.062;2023-04-21T00:07:11;98670.63;;;7.88;87.88
53340;BME280;46212;50.258;19.062;2023-04-21T00:09:39;98663.44;;;7.78;88.25
53340;BME280;46212;50.258;19.062;2023-04-21T00:12:04;98668.78;;;7.69;88.95
53340;BME280;46212;50.258;19.062;2023-04-21T00:14:30;98662.19;;;7.67;89.29
53340;BME280;46212;50.258;19.062;2023-04-21T00:16:55;98667.16;;;7.72;88.74
53340;BME280;46212;50.258;19.062;2023-04-21T00:19:21;98660.44;;;7.73;88.26
53340;BME280;46212;50.258;19.062;2023-04-21T00:21:47;98658.47;;;7.73;88.47
53340;BME280;46212;50.258;19.062;2023-04-21T00:24:13;98660.56;;;7.69;89.04
53340;BME280;46212;50.258;19.062;2023-04-21T00:26:38;98660.56;;;7.69;89.02
53340;BME280;46212;50.258;19.062;2023-04-21T00:29:04;98658.44;;;7.61;89.38
53340;BME280;46212;50.258;19.062;2023-04-21T00:31:29;98655.53;;;7.52;89.97
53340;BME280;46212;50.258;19.062;2023-04-21T00:33:55;98662.66;;;7.49;89.96
53340;BME280;46212;50.258;19.062;2023-04-21T00:36:20;98660.44;;;7.44;89.61
53340;BME280;46212;50.258;19.062;2023-04-21T00:38:46;98659.69;;;7.43;89.33
53340;BME280;46212;50.258;19.062;2023-04-21T00:41:11;98657.72;;;7.44;89.09
53340;BME280;46212;50.258;19.062;2023-04-21T00:43:36;98663.28;;;7.40;89.37
53340;BME280;46212;50.258;19.062;2023-04-21T00:46:02;98659.09;;;7.36;89.53
53340;BME280;46212;50.258;19.062;2023-04-21T00:48:27;98658.00;;;7.17;90.16
53340;BME280;46212;50.258;19.062;2023-04-21T00:50:53;98651.00;;;7.16;90.70
53340;BME280;46212;50.258;19.062;2023-04-21T00:53:19;98667.03;;;7.18;90.71
53340;BME280;46212;50.258;19.062;2023-04-21T00:55:45;98665.69;;;6.93;91.62
53340;BME280;46212;50.258;19.062;2023-04-21T00:58:11;98663.00;;;6.90;91.73
53340;BME280;46212;50.258;19.062;2023-04-21T01:00:37;98660.69;;;7.05;90.49
53340;BME280;46212;50.258;19.062;2023-04-21T01:03:03;98660.25;;;7.06;89.70
53340;BME280;46212;50.258;19.062;2023-04-21T01:05:30;98661.13;;;7.03;90.35
53340;BME280;46212;50.258;19.062;2023-04-21T01:07:56;98648.41;;;7.09;90.17
53340;BME280;46212;50.258;19.062;2023-04-21T01:10:21;98644.75;;;7.00;90.36
53340;BME280;46212;50.258;19.062;2023-04-21T01:12:47;98655.88;;;6.92;91.16
53340;BME280;46212;50.258;19.062;2023-04-21T01:15:14;98655.13;;;6.92;91.59
53340;BME280;46212;50.258;19.062;2023-04-21T01:17:40;98652.91;;;6.71;91.80
53340;BME280;46212;50.258;19.062;2023-04-21T01:20:11;98655.56;;;6.74;92.32
53340;BME280;46212;50.258;19.062;2023-04-21T01:22:38;98654.69;;;6.61;92.76
53340;BME280;46212;50.258;19.062;2023-04-21T01:25:04;98661.19;;;6.51;93.07
53340;BME280;46212;50.258;19.062;2023-04-21T01:27:30;98656.63;;;6.45;93.83
53340;BME280;46212;50.258;19.062;2023-04-21T01:29:56;98660.84;;;6.49;93.78
53340;BME280;46212;50.258;19.062;2023-04-21T01:32:25;98660.59;;;6.60;93.29
53340;BME280;46212;50.258;19.062;2023-04-21T01:34:51;98665.56;;;6.49;93.06
53340;BME280;46212;50.258;19.062;2023-04-21T01:37:20;98666.16;;;6.40;93.83
53340;BME280;46212;50.258;19.062;2023-04-21T01:39:49;98661.34;;;6.44;94.21
53340;BME280;46212;50.258;19.062;2023-04-21T01:42:23;98658.81;;;6.53;93.50
53340;BME280;46212;50.258;19.062;2023-04-21T01:44:50;98665.34;;;6.59;93.07
53340;BME280;46212;50.258;19.062;2023-04-21T01:47:18;98658.34;;;6.38;93.26
53340;BME280;46212;50.258;19.062;2023-04-21T01:49:43;98663.78;;;6.22;94.14
53340;BME280;46212;50.258;19.062;2023-04-21T01:52:09;98658.31;;;6.22;94.31
53340;BME280;46212;50.258;19.062;2023-04-21T01:54:34;98654.00;;;6.05;94.57
53340;BME280;46212;50.258;19.062;2023-04-21T01:57:00;98647.97;;;6.30;94.21
53340;BME280;46212;50.258;19.062;2023-04-21T01:59:26;98655.59;;;6.38;93.73
53340;BME280;46212;50.258;19.062;2023-04-21T02:01:52;98658.78;;;6.37;93.87
53340;BME280;46212;50.258;19.062;2023-04-21T02:04:17;98659.63;;;6.34;94.11
53340;BME280;46212;50.258;19.062;2023-04-21T02:06:42;98653.81;;;6.12;95.07
53340;BME280;46212;50.258;19.062;2023-04-21T02:09:08;98660.19;;;6.25;95.06
53340;BME280;46212;50.258;19.062;2023-04-21T02:11:33;98650.19;;;6.35;94.35
53340;BME280;46212;50.258;19.062;2023-04-21T02:13:59;98660.84;;;6.49;93.11
53340;BME280;46212;50.258;19.062;2023-04-21T02:16:24;98658.44;;;6.51;92.65
53340;BME280;46212;50.258;19.062;2023-04-21T02:18:53;98656.06;;;6.53;92.28
53340;BME280;46212;50.258;19.062;2023-04-21T02:21:21;98654.94;;;6.51;92.02
53340;BME280;46212;50.258;19.062;2023-04-21T02:23:46;98652.88;;;6.55;92.29
53340;BME280;46212;50.258;19.062;2023-04-21T02:26:12;98652.09;;;6.54;92.14
53340;BME280;46212;50.258;19.062;2023-04-21T02:28:37;98653.56;;;6.59;92.28
53340;BME280;46212;50.258;19.062;2023-04-21T02:31:03;98655.09;;;6.60;92.03
53340;BME280;46212;50.258;19.062;2023-04-21T02:33:28;98648.94;;;6.56;91.76
53340;BME280;46212;50.258;19.062;2023-04-21T02:35:54;98655.78;;;6.48;92.00
53340;BME280;46212;50.258;19.062;2023-04-21T02:38:19;98652.63;;;6.49;91.92
53340;BME280;46212;50.258;19.062;2023-04-21T02:40:45;98656.63;;;6.45;91.99
53340;BME280;46212;50.258;19.062;2023-04-21T02:43:10;98658.09;;;6.33;92.33
53340;BME280;46212;50.258;19.062;2023-04-21T02:45:36;98656.84;;;6.18;92.86
53340;BME280;46212;50.258;19.062;2023-04-21T02:48:02;98647.41;;;6.19;93.26
53340;BME280;46212;50.258;19.062;2023-04-21T02:50:27;98656.09;;;6.17;93.00
53340;BME280;46212;50.258;19.062;2023-04-21T02:52:53;98654.03;;;6.21;92.38
53340;BME280;46212;50.258;19.062;2023-04-21T02:55:18;98653.34;;;6.17;92.53
53340;BME280;46212;50.258;19.062;2023-04-21T02:57:43;98654.03;;;6.21;92.10
53340;BME280;46212;50.258;19.062;2023-04-21T03:00:09;98651.81;;;6.32;91.41
53340;BME280;46212;50.258;19.062;2023-04-21T03:02:36;98655.94;;;6.24;91.05
53340;BME280;46212;50.258;19.062;2023-04-21T03:05:02;98654.38;;;6.23;90.80
53340;BME280;46212;50.258;19.062;2023-04-21T03:07:28;98652.97;;;6.15;90.96
53340;BME280;46212;50.258;19.062;2023-04-21T03:09:53;98657.00;;;6.11;91.56
53340;BME280;46212;50.258;19.062;2023-04-21T03:12:19;98653.44;;;5.94;92.23
53340;BME280;46212;50.258;19.062;2023-04-21T03:14:45;98654.28;;;5.91;92.60
53340;BME280;46212;50.258;19.062;2023-04-21T03:17:10;98660.53;;;5.92;92.68
53340;BME280;46212;50.258;19.062;2023-04-21T03:19:35;98650.56;;;6.01;91.81
53340;BME280;46212;50.258;19.062;2023-04-21T03:22:01;98653.56;;;6.07;91.25
53340;BME280;46212;50.258;19.062;2023-04-21T03:24:26;98637.03;;;6.10;91.26
53340;BME280;46212;50.258;19.062;2023-04-21T03:26:52;98635.47;;;6.09;91.36
53340;BME280;46212;50.258;19.062;2023-04-21T03:29:17;98647.22;;;6.10;91.25
53340;BME280;46212;50.258;19.062;2023-04-21T03:31:42;98654.84;;;6.02;91.52
53340;BME280;46212;50.258;19.062;2023-04-21T03:34:08;98658.22;;;5.90;92.07
53340;BME280;46212;50.258;19.062;2023-04-21T03:36:33;98656.53;;;5.76;92.47
53340;BME280;46212;50.258;19.062;2023-04-21T03:39:00;98653.78;;;5.76;92.41
53340;BME280;46212;50.258;19.062;2023-04-21T03:41:25;98660.66;;;5.84;92.02
53340;BME280;46212;50.258;19.062;2023-04-21T03:43:51;98664.75;;;5.76;91.98
53340;BME280;46212;50.258;19.062;2023-04-21T03:46:17;98669.44;;;5.76;91.93
53340;BME280;46212;50.258;19.062;2023-04-21T03:48:44;98669.00;;;5.77;91.73
53340;BME280;46212;50.258;19.062;2023-04-21T03:51:09;98670.34;;;5.50;92.73
53340;BME280;46212;50.258;19.062;2023-04-21T03:53:35;98678.41;;;5.37;93.64
53340;BME280;46212;50.258;19.062;2023-04-21T03:56:00;98673.44;;;5.52;93.73
53340;BME280;46212;50.258;19.062;2023-04-21T03:58:25;98683.34;;;5.65;92.62
53340;BME280;46212;50.258;19.062;2023-04-21T04:00:51;98675.41;;;5.71;92.10
53340;BME280;46212;50.258;19.062;2023-04-21T04:03:16;98670.84;;;5.84;91.16
53340;BME280;46212;50.258;19.062;2023-04-21T04:05:41;98674.75;;;5.86;90.52
53340;BME280;46212;50.258;19.062;2023-04-21T04:08:07;98676.66;;;5.90;90.57
53340;BME280;46212;50.258;19.062;2023-04-21T04:10:32;98681.69;;;5.91;90.96
53340;BME280;46212;50.258;19.062;2023-04-21T04:12:57;98684.03;;;5.93;91.09
53340;BME280;46212;50.258;19.062;2023-04-21T04:15:23;98694.28;;;5.88;91.41
53340;BME280;46212;50.258;19.062;2023-04-21T04:17:48;98697.47;;;5.64;92.53
53340;BME280;46212;50.258;19.062;2023-04-21T04:20:14;98691.00;;;5.54;93.20
53340;BME280;46212;50.258;19.062;2023-04-21T04:22:39;98698.00;;;5.55;93.62
53340;BME280;46212;50.258;19.062;2023-04-21T04:25:05;98693.59;;;5.81;93.09
53340;BME280;46212;50.258;19.062;2023-04-21T04:27:30;98694.69;;;5.87;92.40
53340;BME280;46212;50.258;19.062;2023-04-21T04:29:56;98698.66;;;5.86;91.97
53340;BME280;46212;50.258;19.062;2023-04-21T04:32:21;98690.34;;;5.90;91.94
53340;BME280;46212;50.258;19.062;2023-04-21T04:34:47;98702.91;;;6.07;91.43
53340;BME280;46212;50.258;19.062;2023-04-21T04:37:12;98700.59;;;6.05;91.08
53340;BME280;46212;50.258;19.062;2023-04-21T04:39:38;98695.53;;;6.04;91.34
53340;BME280;46212;50.258;19.062;2023-04-21T04:42:06;98700.22;;;6.03;91.41
53340;BME280;46212;50.258;19.062;2023-04-21T04:44:33;98696.31;;;6.04;91.56
53340;BME280;46212;50.258;19.062;2023-04-21T04:46:59;98702.56;;;6.05;91.51
53340;BME280;46212;50.258;19.062;2023-04-21T04:49:25;98698.00;;;5.98;92.05
53340;BME280;46212;50.258;19.062;2023-04-21T04:51:50;98704.59;;;6.01;92.00
53340;BME280;46212;50.258;19.062;2023-04-21T04:54:15;98705.59;;;6.10;91.94
53340;BME280;46212;50.258;19.062;2023-04-21T04:56:41;98698.53;;;6.09;91.90
53340;BME280;46212;50.258;19.062;2023-04-21T04:59:06;98710.28;;;6.10;92.93
53340;BME280;46212;50.258;19.062;2023-04-21T05:01:32;98707.97;;;6.08;93.68
53340;BME280;46212;50.258;19.062;2023-04-21T05:03:57;98708.66;;;6.12;93.57
53340;BME280;46212;50.258;19.062;2023-04-21T05:06:23;98707.00;;;6.18;93.45
53340;BME280;46212;50.258;19.062;2023-04-21T05:08:48;98713.94;;;6.23;93.79
53340;BME280;46212;50.258;19.062;2023-04-21T05:11:14;98706.25;;;6.34;93.85
53340;BME280;46212;50.258;19.062;2023-04-21T05:13:39;98709.53;;;6.45;93.87
53340;BME280;46212;50.258;19.062;2023-04-21T05:16:05;98706.13;;;6.57;93.66
53340;BME280;46212;50.258;19.062;2023-04-21T05:18:30;98698.06;;;6.66;93.43
53340;BME280;46212;50.258;19.062;2023-04-21T05:20:56;98706.41;;;6.79;92.85
53340;BME280;46212;50.258;19.062;2023-04-21T05:23:21;98703.94;;;6.84;92.39
53340;BME280;46212;50.258;19.062;2023-04-21T05:25:47;98704.19;;;6.90;91.93
53340;BME280;46212;50.258;19.062;2023-04-21T05:28:12;98696.81;;;7.03;91.39
53340;BME280;46212;50.258;19.062;2023-04-21T05:30:39;98690.81;;;7.08;90.53
53340;BME280;46212;50.258;19.062;2023-04-21T05:33:05;98698.88;;;7.15;90.25
53340;BME280;46212;50.258;19.062;2023-04-21T05:35:30;98690.88;;;7.21;89.48
53340;BME280;46212;50.258;19.062;2023-04-21T05:37:55;98698.50;;;7.29;88.37
53340;BME280;46212;50.258;19.062;2023-04-21T05:40:21;98700.59;;;7.70;85.46
53340;BME280;46212;50.258;19.062;2023-04-21T05:42:46;98696.97;;;8.15;82.82
53340;BME280;46212;50.258;19.062;2023-04-21T05:45:12;98703.66;;;8.42;81.52
53340;BME280;46212;50.258;19.062;2023-04-21T05:47:37;98697.81;;;8.53;79.56
53340;BME280;46212;50.258;19.062;2023-04-21T05:50:04;98705.94;;;8.31;81.33
53340;BME280;46212;50.258;19.062;2023-04-21T05:52:30;98711.19;;;8.26;82.36
53340;BME280;46212;50.258;19.062;2023-04-21T05:54:57;98695.22;;;8.21;82.61
53340;BME280;46212;50.258;19.062;2023-04-21T05:57:23;98696.09;;;8.18;82.85
53340;BME280;46212;50.258;19.062;2023-04-21T05:59:49;98695.50;;;8.51;81.49
53340;BME280;46212;50.258;19.062;2023-04-21T06:02:14;98700.81;;;8.71;80.20
53340;BME280;46212;50.258;19.062;2023-04-21T06:04:40;98705.75;;;8.89;79.35
53340;BME280;46212;50.258;19.062;2023-04-21T06:07:09;98702.28;;;9.10;78.33
53340;BME280;46212;50.258;19.062;2023-04-21T06:09:38;98694.78;;;9.23;77.05
53340;BME280;46212;50.258;19.062;2023-04-21T06:12:03;98698.00;;;9.22;77.58
53340;BME280;46212;50.258;19.062;2023-04-21T06:14:29;98694.66;;;9.27;77.34
53340;BME280;46212;50.258;19.062;2023-04-21T06:16:54;98702.16;;;9.26;77.50
53340;BME280;46212;50.258;19.062;2023-04-21T06:19:20;98694.00;;;9.35;76.81
53340;BME280;46212;50.258;19.062;2023-04-21T06:21:45;98689.47;;;9.41;76.74
53340;BME280;46212;50.258;19.062;2023-04-21T06:24:11;98702.09;;;9.51;75.80
53340;BME280;46212;50.258;19.062;2023-04-21T06:26:37;98700.31;;;9.57;75.56
53340;BME280;46212;50.258;19.062;2023-04-21T06:29:02;98703.72;;;9.61;74.96
53340;BME280;46212;50.258;19.062;2023-04-21T06:31:28;98694.53;;;9.65;75.05
53340;BME280;46212;50.258;19.062;2023-04-21T06:33:53;98693.75;;;9.98;74.35
53340;BME280;46212;50.258;19.062;2023-04-21T06:36:19;98697.56;;;10.44;72.79
53340;BME280;46212;50.258;19.062;2023-04-21T06:38:47;98701.50;;;10.65;71.34
53340;BME280;46212;50.258;19.062;2023-04-21T06:41:12;98695.06;;;10.68;71.24
53340;BME280;46212;50.258;19.062;2023-04-21T06:43:38;98701.84;;;10.76;70.65
53340;BME280;46212;50.258;19.062;2023-04-21T06:46:03;98689.66;;;11.04;69.42
53340;BME280;46212;50.258;19.062;2023-04-21T06:48:29;98686.44;;;11.06;69.39
53340;BME280;46212;50.258;19.062;2023-04-21T06:50:54;98690.81;;;11.34;68.85
53340;BME280;46212;50.258;19.062;2023-04-21T06:53:20;98695.56;;;11.61;67.12
53340;BME280;46212;50.258;19.062;2023-04-21T06:55:46;98691.44;;;11.56;67.29
53340;BME280;46212;50.258;19.062;2023-04-21T06:58:12;98681.16;;;11.57;67.54
53340;BME280;46212;50.258;19.062;2023-04-21T07:00:37;98691.16;;;11.82;65.74
53340;BME280;46212;50.258;19.062;2023-04-21T07:03:03;98693.31;;;11.87;65.45
53340;BME280;46212;50.258;19.062;2023-04-21T07:05:28;98685.00;;;11.87;65.26
53340;BME280;46212;50.258;19.062;2023-04-21T07:07:55;98685.41;;;12.21;62.90
53340;BME280;46212;50.258;19.062;2023-04-21T07:10:25;98690.00;;;12.34;61.99
53340;BME280;46212;50.258;19.062;2023-04-21T07:12:50;98686.13;;;12.40;62.30
53340;BME280;46212;50.258;19.062;2023-04-21T07:15:16;98688.41;;;12.51;61.17
53340;BME280;46212;50.258;19.062;2023-04-21T07:17:41;98684.22;;;12.64;60.25
53340;BME280;46212;50.258;19.062;2023-04-21T07:20:07;98684.81;;;12.68;59.47
53340;BME280;46212;50.258;19.062;2023-04-21T07:22:32;98687.41;;;12.81;59.87
53340;BME280;46212;50.258;19.062;2023-04-21T07:25:04;98689.75;;;12.97;58.22
53340;BME280;46212;50.258;19.062;2023-04-21T07:27:33;98692.00;;;13.17;57.68
53340;BME280;46212;50.258;19.062;2023-04-21T07:30:00;98688.22;;;13.29;57.16
53340;BME280;46212;50.258;19.062;2023-04-21T07:32:25;98692.13;;;13.46;57.25
53340;BME280;46212;50.258;19.062;2023-04-21T07:34:51;98687.09;;;13.59;56.94
53340;BME280;46212;50.258;19.062;2023-04-21T07:37:17;98689.63;;;13.72;56.20
53340;BME280;46212;50.258;19.062;2023-04-21T07:39:42;98674.19;;;13.71;54.73
53340;BME280;46212;50.258;19.062;2023-04-21T07:42:07;98688.09;;;13.71;56.22
53340;BME280;46212;50.258;19.062;2023-04-21T07:44:34;98678.53;;;13.87;55.18
53340;BME280;46212;50.258;19.062;2023-04-21T07:46:59;98685.97;;;14.04;53.14
53340;BME280;46212;50.258;19.062;2023-04-21T07:49:25;98673.97;;;14.13;52.78
53340;BME280;46212;50.258;19.062;2023-04-21T07:51:50;98671.91;;;14.37;52.61
53340;BME280;46212;50.258;19.062;2023-04-21T07:54:16;98676.38;;;14.49;51.63
53340;BME280;46212;50.258;19.062;2023-04-21T07:56:41;98671.41;;;14.53;51.77
53340;BME280;46212;50.258;19.062;2023-04-21T07:59:07;98674.94;;;14.68;51.64
53340;BME280;46212;50.258;19.062;2023-04-21T08:01:32;98669.94;;;14.72;52.21
53340;BME280;46212;50.258;19.062;2023-04-21T08:03:57;98671.94;;;14.86;50.14
53340;BME280;46212;50.258;19.062;2023-04-21T08:06:23;98670.00;;;14.93;49.54
53340;BME280;46212;50.258;19.062;2023-04-21T08:08:48;98662.09;;;15.06;49.57
53340;BME280;46212;50.258;19.062;2023-04-21T08:11:14;98674.50;;;15.25;49.65
53340;BME280;46212;50.258;19.062;2023-04-21T08:13:39;98665.00;;;15.31;48.93
53340;BME280;46212;50.258;19.062;2023-04-21T08:16:05;98652.44;;;15.41;49.59
53340;BME280;46212;50.258;19.062;2023-04-21T08:18:30;98657.94;;;15.51;46.81
53340;BME280;46212;50.258;19.062;2023-04-21T08:20:56;98669.31;;;15.53;48.61
53340;BME280;46212;50.258;19.062;2023-04-21T08:23:22;98668.19;;;15.65;47.53
53340;BME280;46212;50.258;19.062;2023-04-21T08:25:47;98655.66;;;15.75;47.16
53340;BME280;46212;50.258;19.062;2023-04-21T08:28:13;98657.41;;;15.72;48.62
53340;BME280;46212;50.258;19.062;2023-04-21T08:30:41;98656.69;;;15.77;47.72
53340;BME280;46212;50.258;19.062;2023-04-21T08:33:06;98664.41;;;15.88;46.57
53340;BME280;46212;50.258;19.062;2023-04-21T08:35:34;98654.50;;;16.07;45.90
53340;BME280;46212;50.258;19.062;2023-04-21T08:38:00;98646.91;;;16.08;45.69
53340;BME280;46212;50.258;19.062;2023-04-21T08:40:31;98643.50;;;15.98;47.35
53340;BME280;46212;50.258;19.062;2023-04-21T08:42:57;98646.59;;;16.06;43.96
53340;BME280;46212;50.258;19.062;2023-04-21T08:45:23;98648.78;;;16.22;44.30
53340;BME280;46212;50.258;19.062;2023-04-21T08:47:48;98648.22;;;16.43;43.91
53340;BME280;46212;50.258;19.062;2023-04-21T08:50:14;98648.53;;;16.51;44.14
53340;BME280;46212;50.258;19.062;2023-04-21T08:52:40;98652.19;;;16.63;43.43
53340;BME280;46212;50.258;19.062;2023-04-21T08:55:05;98650.94;;;16.64;44.68
53340;BME280;46212;50.258;19.062;2023-04-21T08:57:32;98645.84;;;16.62;43.92
53340;BME280;46212;50.258;19.062;2023-04-21T08:59:57;98646.13;;;16.64;42.32
53340;BME280;46212;50.258;19.062;2023-04-21T09:02:23;98647.66;;;16.65;41.64
53340;BME280;46212;50.258;19.062;2023-04-21T09:04:49;98641.66;;;16.78;41.15
53340;BME280;46212;50.258;19.062;2023-04-21T09:07:32;98639.41;;;16.82;39.56
53340;BME280;46212;50.258;19.062;2023-04-21T09:09:58;98628.78;;;16.86;39.03
53340;BME280;46212;50.258;19.062;2023-04-21T09:12:28;98641.78;;;16.94;38.87
53340;BME280;46212;50.258;19.062;2023-04-21T09:14:53;98639.28;;;17.02;38.40
53340;BME280;46212;50.258;19.062;2023-04-21T09:17:27;98633.25;;;17.09;38.39
53340;BME280;46212;50.258;19.062;2023-04-21T09:19:56;98627.97;;;17.22;37.11
53340;BME280;46212;50.258;19.062;2023-04-21T09:22:26;98627.28;;;17.38;37.09
53340;BME280;46212;50.258;19.062;2023-04-21T09:24:57;98629.59;;;17.45;39.09
53340;BME280;46212;50.258;19.062;2023-04-21T09:27:24;98626.28;;;17.41;35.82
53340;BME280;46212;50.258;19.062;2023-04-21T09:29:49;98627.59;;;17.51;36.72
53340;BME280;46212;50.258;19.062;2023-04-21T09:32:18;98628.59;;;17.48;36.57
53340;BME280;46212;50.258;19.062;2023-04-21T09:34:44;98618.19;;;17.54;37.16
53340;BME280;46212;50.258;19.062;2023-04-21T09:37:11;98615.44;;;17.60;36.46
53340;BME280;46212;50.258;19.062;2023-04-21T09:39:43;98610.66;;;17.66;34.80
53340;BME280;46212;50.258;19.062;2023-04-21T09:42:09;98615.25;;;17.69;36.61
53340;BME280;46212;50.258;19.062;2023-04-21T09:44:35;98611.16;;;17.70;36.48
53340;BME280;46212;50.258;19.062;2023-04-21T09:47:03;98615.25;;;17.69;36.55
53340;BME280;46212;50.258;19.062;2023-04-21T09:49:30;98613.72;;;17.68;35.15
53340;BME280;46212;50.258;19.062;2023-04-21T09:51:58;98615.25;;;17.69;34.34
53340;BME280;46212;50.258;19.062;2023-04-21T09:54:32;98617.56;;;17.82;35.38
53340;BME280;46212;50.258;19.062;2023-04-21T09:56:59;98617.31;;;18.02;34.86
53340;BME280;46212;50.258;19.062;2023-04-21T09:59:31;98621.66;;;18.09;33.83
53340;BME280;46212;50.258;19.062;2023-04-21T10:01:59;98607.69;;;18.20;33.35
53340;BME280;46212;50.258;19.062;2023-04-21T10:04:27;98611.75;;;18.19;32.51
53340;BME280;46212;50.258;19.062;2023-04-21T10:06:55;98603.38;;;18.30;34.00
53340;BME280;46212;50.258;19.062;2023-04-21T10:09:22;98598.28;;;18.39;33.87
53340;BME280;46212;50.258;19.062;2023-04-21T10:11:50;98611.50;;;18.44;33.41
53340;BME280;46212;50.258;19.062;2023-04-21T10:14:17;98603.91;;;18.50;33.60
53340;BME280;46212;50.258;19.062;2023-04-21T10:16:42;98601.63;;;18.60;33.38
53340;BME280;46212;50.258;19.062;2023-04-21T10:19:25;98604.91;;;18.70;32.12
53340;BME280;46212;50.258;19.062;2023-04-21T10:21:50;98607.41;;;18.90;32.33
53340;BME280;46212;50.258;19.062;2023-04-21T10:24:19;98601.78;;;19.01;30.85
53340;BME280;46212;50.258;19.062;2023-04-21T10:26:44;98611.66;;;19.13;31.66
53340;BME280;46212;50.258;19.062;2023-04-21T10:29:10;98596.06;;;19.29;30.66
53340;BME280;46212;50.258;19.062;2023-04-21T10:31:51;98600.91;;;19.28;31.02
53340;BME280;46212;50.258;19.062;2023-04-21T10:34:37;98593.03;;;19.27;31.07
53340;BME280;46212;50.258;19.062;2023-04-21T10:39:34;98593.41;;;18.95;32.30
53340;BME280;46212;50.258;19.062;2023-04-21T10:45:06;98587.09;;;18.62;31.72
53340;BME280;46212;50.258;19.062;2023-04-21T10:47:41;98594.75;;;18.50;31.77
53340;BME280;46212;50.258;19.062;2023-04-21T10:50:22;98592.72;;;18.56;31.13
53340;BME280;46212;50.258;19.062;2023-04-21T10:53:07;98588.84;;;18.81;32.63
53340;BME280;46212;50.258;19.062;2023-04-21T10:55:34;98588.06;;;18.97;32.05
53340;BME280;46212;50.258;19.062;2023-04-21T10:58:07;98580.09;;;19.18;31.98
53340;BME280;46212;50.258;19.062;2023-04-21T11:00:36;98579.53;;;19.25;31.03
53340;BME280;46212;50.258;19.062;2023-04-21T11:03:05;98582.09;;;19.29;31.42
53340;BME280;46212;50.258;19.062;2023-04-21T11:05:37;98586.13;;;19.39;30.89
53340;BME280;46212;50.258;19.062;2023-04-21T11:08:07;98570.44;;;19.71;29.80
53340;BME280;46212;50.258;19.062;2023-04-21T11:10:54;98563.56;;;20.07;30.05
53340;BME280;46212;50.258;19.062;2023-04-21T11:13:21;98578.22;;;20.25;27.71
53340;BME280;46212;50.258;19.062;2023-04-21T11:16:02;98577.13;;;20.33;29.56
53340;BME280;46212;50.258;19.062;2023-04-21T11:18:45;98569.63;;;20.47;28.91
53340;BME280;46212;50.258;19.062;2023-04-21T11:21:14;98570.06;;;20.27;28.86
53340;BME280;46212;50.258;19.062;2023-04-21T11:23:55;98566.75;;;20.23;30.80
53340;BME280;46212;50.258;19.062;2023-04-21T11:26:36;98566.63;;;20.39;31.86
53340;BME280;46212;50.258;19.062;2023-04-21T11:29:06;98555.50;;;20.58;29.33
53340;BME280;46212;50.258;19.062;2023-04-21T11:31:33;98556.09;;;20.75;29.65
53340;BME280;46212;50.258;19.062;2023-04-21T11:34:01;98547.59;;;20.81;27.26
53340;BME280;46212;50.258;19.062;2023-04-21T11:36:38;98542.59;;;20.74;26.54
53340;BME280;46212;50.258;19.062;2023-04-21T11:39:09;98552.38;;;20.61;29.03
53340;BME280;46212;50.258;19.062;2023-04-21T11:41:39;98556.53;;;20.55;28.89
53340;BME280;46212;50.258;19.062;2023-04-21T11:44:05;98550.47;;;20.51;28.94
53340;BME280;46212;50.258;19.062;2023-04-21T11:46:31;98548.75;;;20.42;28.14
53340;BME280;46212;50.258;19.062;2023-04-21T11:49:02;98548.44;;;20.51;29.36
53340;BME280;46212;50.258;19.062;2023-04-21T11:51:32;98550.22;;;20.49;28.29
53340;BME280;46212;50.258;19.062;2023-04-21T11:53:58;98545.72;;;20.40;29.04
53340;BME280;46212;50.258;19.062;2023-04-21T11:56:25;98546.06;;;20.31;28.48
53340;BME280;46212;50.258;19.062;2023-04-21T11:58:51;98549.72;;;20.50;27.61
53340;BME280;46212;50.258;19.062;2023-04-21T12:01:20;98544.56;;;20.79;28.31
53340;BME280;46212;50.258;19.062;2023-04-21T12:03:53;98548.47;;;20.94;27.97
53340;BME280;46212;50.258;19.062;2023-04-21T12:06:23;98549.81;;;21.12;27.69
53340;BME280;46212;50.258;19.062;2023-04-21T12:09:00;98540.59;;;21.54;27.98
53340;BME280;46212;50.258;19.062;2023-04-21T12:11:27;98538.53;;;21.73;25.66
53340;BME280;46212;50.258;19.062;2023-04-21T12:13:52;98535.63;;;21.98;26.68
53340;BME280;46212;50.258;19.062;2023-04-21T12:16:18;98534.59;;;22.14;25.87
53340;BME280;46212;50.258;19.062;2023-04-21T12:18:44;98537.34;;;22.19;25.61
53340;BME280;46212;50.258;19.062;2023-04-21T12:21:13;98535.31;;;22.01;27.31
53340;BME280;46212;50.258;19.062;2023-04-21T12:23:39;98529.78;;;21.77;26.30
53340;BME280;46212;50.258;19.062;2023-04-21T12:26:05;98526.91;;;21.64;27.54
53340;BME280;46212;50.258;19.062;2023-04-21T12:28:30;98518.16;;;21.67;27.74
53340;BME280;46212;50.258;19.062;2023-04-21T12:30:56;98519.44;;;22.04;28.32
53340;BME280;46212;50.258;19.062;2023-04-21T12:33:21;98512.59;;;22.44;28.93
53340;BME280;46212;50.258;19.062;2023-04-21T12:35:46;98520.88;;;22.82;28.67
53340;BME280;46212;50.258;19.062;2023-04-21T12:38:12;98519.63;;;23.43;28.42
53340;BME280;46212;50.258;19.062;2023-04-21T12:40:37;98512.47;;;24.58;25.78
53340;BME280;46212;50.258;19.062;2023-04-21T12:43:03;98505.47;;;25.52;23.11
53340;BME280;46212;50.258;19.062;2023-04-21T12:45:28;98504.72;;;27.18;21.39
53340;BME280;46212;50.258;19.062;2023-04-21T12:47:53;98511.59;;;28.61;20.02
53340;BME280;46212;50.258;19.062;2023-04-21T12:50:19;98509.59;;;29.13;18.66
53340;BME280;46212;50.258;19.062;2023-04-21T12:52:45;98514.44;;;30.08;18.01
53340;BME280;46212;50.258;19.062;2023-04-21T12:55:10;98508.53;;;30.69;16.78
53340;BME280;46212;50.258;19.062;2023-04-21T12:57:37;98512.00;;;31.73;17.52
53340;BME280;46212;50.258;19.062;2023-04-21T13:00:03;98513.38;;;32.13;16.67